createdAt,value
2017-05-14T00:00:37.645Z,13.38
2017-05-14T00:03:10.368Z,13.76
2017-05-14T00:05:41.732Z,14.04
2017-05-14T00:08:13.433Z,15.80
2017-05-14T00:10:44.638Z,13.10
2017-05-14T00:13:15.181Z,14.64
2017-05-14T00:15:50.583Z,15.34
2017-05-14T00:18:22.362Z,14.32
2017-05-14T00:20:51.463Z,14.96
2017-05-14T00:23:20.944Z,14.64
2017-05-14T00:25:50.458Z,16.32
2017-05-14T00:28:23.062Z,14.78
2017-05-14T00:30:53.549Z,15.76
2017-05-14T00:33:23.556Z,16.02
2017-05-14T00:35:55.597Z,15.32
2017-05-14T00:38:25.395Z,15.70
2017-05-14T00:40:58.657Z,15.96
2017-05-14T00:43:27.788Z,16.80
2017-05-14T00:45:57.745Z,16.38
2017-05-14T00:48:27.065Z,15.56
2017-05-14T00:50:58.209Z,16.38
2017-05-14T00:53:30.324Z,17.00
2017-05-14T00:56:00.153Z,15.98
2017-05-14T00:58:30.989Z,16.60
2017-05-14T01:01:00.073Z,17.66
2017-05-14T01:03:29.873Z,18.30
2017-05-14T01:05:59.689Z,17.66
2017-05-14T01:08:32.290Z,15.98
2017-05-14T01:11:01.378Z,17.20
2017-05-14T01:13:37.195Z,16.78
2017-05-14T01:16:09.414Z,16.96
2017-05-14T01:18:38.463Z,16.90
2017-05-14T01:21:11.324Z,16.32
2017-05-14T01:23:40.984Z,16.54
2017-05-14T01:26:11.621Z,18.94
2017-05-14T01:28:40.758Z,17.54
2017-05-14T01:31:09.810Z,17.32
2017-05-14T01:33:43.064Z,17.04
2017-05-14T01:36:16.545Z,18.14
2017-05-14T01:38:51.087Z,16.84
2017-05-14T01:41:29.633Z,18.46
2017-05-14T01:44:01.782Z,18.76
2017-05-14T01:46:36.483Z,19.08
2017-05-14T01:49:09.395Z,19.82
2017-05-14T01:51:43.294Z,20.42
2017-05-14T01:54:17.592Z,20.30
2017-05-14T01:56:51.692Z,20.38
2017-05-14T01:59:25.744Z,21.60
2017-05-14T02:02:02.455Z,20.20
2017-05-14T02:04:34.680Z,21.30
2017-05-14T02:07:03.762Z,20.44
2017-05-14T02:09:39.214Z,21.42
2017-05-14T02:12:08.876Z,21.08
2017-05-14T02:14:42.482Z,21.46
2017-05-14T02:17:13.005Z,21.48
2017-05-14T02:19:42.107Z,22.02
2017-05-14T02:22:11.180Z,20.66
2017-05-14T02:24:41.242Z,21.62
2017-05-14T02:27:10.992Z,23.34
2017-05-14T02:29:40.061Z,21.38
2017-05-14T02:32:09.127Z,21.74
2017-05-14T02:34:40.923Z,24.48
2017-05-14T02:37:13.129Z,21.52
2017-05-14T02:39:46.167Z,24.68
2017-05-14T02:42:19.782Z,24.16
2017-05-14T02:44:52.714Z,23.92
2017-05-14T02:47:24.780Z,24.02
2017-05-14T02:50:01.084Z,23.64
2017-05-14T02:52:36.305Z,21.56
2017-05-14T02:55:06.353Z,25.02
2017-05-14T02:57:41.172Z,23.64
2017-05-14T03:00:12.898Z,24.38
2017-05-14T03:02:45.724Z,25.58
2017-05-14T03:05:20.387Z,26.42
2017-05-14T03:07:51.256Z,23.96
2017-05-14T03:10:23.668Z,26.22
2017-05-14T03:12:59.445Z,24.56
2017-05-14T03:15:34.761Z,23.42
2017-05-14T03:18:07.120Z,23.08
2017-05-14T03:20:39.107Z,22.04
2017-05-14T03:23:11.197Z,24.00
2017-05-14T03:25:43.314Z,24.92
2017-05-14T03:28:16.186Z,22.82
2017-05-14T03:30:51.027Z,22.28
2017-05-14T03:33:26.657Z,25.98
2017-05-14T03:35:58.328Z,25.78
2017-05-14T03:38:32.497Z,22.98
2017-05-14T03:41:09.103Z,23.18
2017-05-14T03:43:39.912Z,24.36
2017-05-14T03:46:12.657Z,24.88
2017-05-14T03:48:44.002Z,23.14
2017-05-14T03:51:15.534Z,25.80
2017-05-14T03:53:50.494Z,24.04
2017-05-14T03:56:24.603Z,24.66
2017-05-14T03:58:57.012Z,24.80
2017-05-14T04:01:30.613Z,24.40
2017-05-14T04:04:05.207Z,24.54
2017-05-14T04:06:38.596Z,22.86
2017-05-14T04:09:11.182Z,22.78
2017-05-14T04:11:47.160Z,22.06
2017-05-14T04:14:21.429Z,21.66
2017-05-14T04:16:52.905Z,22.14
2017-05-14T04:19:28.849Z,22.20
2017-05-14T04:22:02.202Z,20.74
2017-05-14T04:24:33.967Z,21.18
2017-05-14T04:27:06.498Z,21.22
2017-05-14T04:29:42.152Z,20.58
2017-05-14T04:32:13.671Z,22.12
2017-05-14T04:34:45.405Z,20.98
2017-05-14T04:37:20.776Z,20.50
2017-05-14T04:39:53.655Z,18.10
2017-05-14T04:42:24.788Z,19.40
2017-05-14T04:44:58.214Z,19.46
2017-05-14T04:47:29.710Z,19.88
2017-05-14T04:50:05.332Z,18.74
2017-05-14T04:52:41.935Z,18.80
2017-05-14T04:55:15.368Z,18.22
2017-05-14T04:57:50.263Z,18.66
2017-05-14T05:00:21.853Z,17.70
2017-05-14T05:02:58.176Z,21.20
2017-05-14T05:05:28.446Z,17.44
2017-05-14T05:08:04.183Z,18.18
2017-05-14T05:10:39.290Z,19.56
2017-05-14T05:13:14.845Z,19.52
2017-05-14T05:15:47.236Z,18.82
2017-05-14T05:18:19.099Z,19.30
2017-05-14T05:20:51.038Z,20.24
2017-05-14T05:23:22.650Z,20.02
2017-05-14T05:25:54.411Z,19.72
2017-05-14T05:28:25.345Z,17.58
2017-05-14T05:30:56.573Z,18.28
2017-05-14T05:33:30.066Z,20.06
2017-05-14T05:36:04.332Z,18.24
2017-05-14T05:38:38.833Z,18.08
2017-05-14T05:41:13.392Z,20.34
2017-05-14T05:43:46.535Z,18.30
2017-05-14T05:46:19.576Z,17.48
2017-05-14T05:48:52.872Z,20.12
2017-05-14T05:51:26.494Z,18.48
2017-05-14T05:53:59.126Z,18.80
2017-05-14T05:56:35.351Z,20.26
2017-05-14T05:59:11.236Z,17.72
2017-05-14T06:01:44.861Z,17.82
2017-05-14T06:04:20.828Z,19.00
2017-05-14T06:06:53.083Z,18.58
2017-05-14T06:09:27.028Z,18.84
2017-05-14T06:12:02.125Z,16.30
2017-05-14T06:14:36.704Z,16.78
2017-05-14T06:17:08.931Z,18.54
2017-05-14T06:19:40.936Z,16.68
2017-05-14T06:22:14.973Z,17.96
2017-05-14T06:24:48.166Z,15.56
2017-05-14T06:27:23.109Z,16.68
2017-05-14T06:29:57.578Z,16.10
2017-05-14T06:32:32.268Z,14.88
2017-05-14T06:35:05.024Z,13.06
2017-05-14T06:37:35.022Z,14.20
2017-05-14T06:40:09.027Z,14.02
2017-05-14T06:42:45.337Z,14.28
2017-05-14T06:45:19.432Z,13.24
2017-05-14T06:47:53.090Z,12.02
2017-05-14T06:50:24.832Z,12.94
2017-05-14T06:53:00.828Z,12.32
2017-05-14T06:55:31.600Z,12.98
2017-05-14T06:58:04.933Z,12.52
2017-05-14T07:00:39.815Z,11.12
2017-05-14T07:03:10.933Z,10.50
2017-05-14T07:05:43.831Z,10.98
2017-05-14T07:08:15.642Z,9.84
2017-05-14T07:10:49.089Z,10.70
2017-05-14T07:13:23.850Z,9.04
2017-05-14T07:15:56.378Z,9.58
2017-05-14T07:18:31.540Z,8.14
2017-05-14T07:21:05.397Z,7.60
2017-05-14T07:23:41.917Z,6.44
2017-05-14T07:26:13.820Z,6.84
2017-05-14T07:28:46.526Z,7.22
2017-05-14T07:31:18.937Z,8.30
2017-05-14T07:33:52.644Z,6.96
2017-05-14T07:36:22.749Z,5.62
2017-05-14T07:38:55.970Z,5.72
2017-05-14T07:41:25.797Z,5.58
2017-05-14T07:43:54.890Z,5.62
2017-05-14T07:46:24.674Z,5.88
2017-05-14T07:48:53.726Z,5.18
2017-05-14T07:51:22.805Z,5.88
2017-05-14T07:53:52.323Z,5.92
2017-05-14T07:56:21.367Z,5.58
2017-05-14T07:58:51.226Z,5.22
2017-05-14T08:01:22.792Z,5.32
2017-05-14T08:03:51.862Z,5.20
2017-05-14T08:06:24.796Z,4.64
2017-05-14T08:08:53.868Z,4.20
2017-05-14T08:11:23.891Z,4.58
2017-05-14T08:13:53.521Z,4.56
2017-05-14T08:16:22.653Z,4.10
2017-05-14T08:18:52.055Z,4.00
2017-05-14T08:21:21.858Z,3.64
2017-05-14T08:23:51.653Z,4.06
2017-05-14T08:26:20.718Z,4.12
2017-05-14T08:28:50.623Z,4.26
2017-05-14T08:31:19.675Z,4.28
2017-05-14T08:33:49.470Z,5.60
2017-05-14T08:36:18.508Z,3.86
2017-05-14T08:38:47.600Z,3.98
2017-05-14T08:41:16.664Z,3.80
2017-05-14T08:43:46.425Z,3.80
2017-05-14T08:46:15.513Z,3.84
2017-05-14T08:48:44.612Z,3.48
2017-05-14T08:51:14.244Z,3.42
2017-05-14T08:53:43.358Z,3.42
2017-05-14T08:56:12.444Z,4.42
2017-05-14T08:58:41.484Z,3.98
2017-05-14T09:01:11.288Z,4.16
2017-05-14T09:03:41.090Z,3.78
2017-05-14T09:06:10.158Z,4.06
2017-05-14T09:08:39.205Z,4.18
2017-05-14T09:11:08.301Z,4.44
2017-05-14T09:13:37.366Z,4.18
2017-05-14T09:16:06.432Z,4.58
2017-05-14T09:18:35.496Z,4.10
2017-05-14T09:21:04.574Z,3.10
2017-05-14T09:23:35.109Z,4.02
2017-05-14T09:26:04.195Z,4.18
2017-05-14T09:28:33.966Z,3.88
2017-05-14T09:31:02.997Z,3.90
2017-05-14T09:33:32.804Z,3.92
2017-05-14T09:36:02.610Z,3.88
2017-05-14T09:38:31.675Z,4.02
2017-05-14T09:41:00.737Z,4.56
2017-05-14T09:43:29.786Z,4.90
2017-05-14T09:45:58.868Z,4.92
2017-05-14T09:48:27.928Z,4.98
2017-05-14T09:50:57.255Z,4.46
2017-05-14T09:53:26.357Z,4.88
2017-05-14T09:55:55.714Z,3.90
2017-05-14T09:58:24.764Z,5.18
2017-05-14T10:00:53.843Z,3.90
2017-05-14T10:03:22.915Z,5.42
2017-05-14T10:05:52.987Z,4.40
2017-05-14T10:08:22.076Z,4.54
2017-05-14T10:10:51.253Z,4.28
2017-05-14T10:13:20.341Z,3.72
2017-05-14T10:15:49.497Z,4.82
2017-05-14T10:18:18.572Z,4.62
2017-05-14T10:20:48.553Z,4.50
2017-05-14T10:23:17.643Z,4.82
2017-05-14T10:25:46.719Z,4.88
2017-05-14T10:28:15.797Z,5.38
2017-05-14T10:30:44.918Z,5.80
2017-05-14T10:33:14.028Z,5.86
2017-05-14T10:35:43.124Z,4.84
2017-05-14T10:38:12.174Z,4.70
2017-05-14T10:40:41.975Z,4.92
2017-05-14T10:43:11.777Z,4.42
2017-05-14T10:45:40.940Z,4.42
2017-05-14T10:48:09.982Z,5.04
2017-05-14T10:50:39.795Z,4.82
2017-05-14T10:53:09.596Z,4.28
2017-05-14T10:55:38.684Z,5.20
2017-05-14T10:58:07.764Z,5.06
2017-05-14T11:00:36.814Z,4.00
2017-05-14T11:03:05.877Z,4.28
2017-05-14T11:05:34.932Z,3.90
2017-05-14T11:08:03.993Z,4.00
2017-05-14T11:10:33.092Z,3.68
2017-05-14T11:13:02.162Z,3.94
2017-05-14T11:15:31.973Z,3.82
2017-05-14T11:18:01.779Z,3.02
2017-05-14T11:20:30.840Z,3.20
2017-05-14T11:22:59.931Z,3.28
2017-05-14T11:25:29.010Z,3.50
2017-05-14T11:27:58.089Z,3.92
2017-05-14T11:30:27.154Z,3.28
2017-05-14T11:32:56.205Z,3.56
2017-05-14T11:35:25.306Z,2.70
2017-05-14T11:37:54.365Z,2.62
2017-05-14T11:40:25.005Z,3.26
2017-05-14T11:42:54.063Z,3.28
2017-05-14T11:45:23.127Z,3.08
2017-05-14T11:47:52.219Z,2.76
2017-05-14T11:50:21.264Z,2.92
2017-05-14T11:52:51.100Z,3.34
2017-05-14T11:55:20.156Z,3.14
2017-05-14T11:57:49.220Z,3.10
2017-05-14T12:00:18.306Z,2.80
2017-05-14T12:02:48.119Z,3.50
2017-05-14T12:05:17.312Z,2.98
2017-05-14T12:07:46.402Z,2.72
2017-05-14T12:10:15.463Z,2.50
2017-05-14T12:12:45.360Z,2.84
2017-05-14T12:15:14.413Z,3.08
2017-05-14T12:17:43.455Z,2.90
2017-05-14T12:20:12.539Z,3.72
2017-05-14T12:22:41.591Z,3.32
2017-05-14T12:25:10.769Z,2.70
2017-05-14T12:27:39.837Z,3.30
2017-05-14T12:30:08.884Z,3.20
2017-05-14T12:32:37.943Z,3.10
2017-05-14T12:35:07.773Z,2.90
2017-05-14T12:37:37.889Z,2.80
2017-05-14T12:40:07.120Z,2.90
2017-05-14T12:42:36.343Z,2.72
2017-05-14T12:45:05.528Z,2.72
2017-05-14T12:47:34.918Z,3.20
2017-05-14T12:50:04.400Z,2.60
2017-05-14T12:52:33.587Z,3.32
2017-05-14T12:55:02.844Z,2.92
2017-05-14T12:57:32.289Z,3.20
2017-05-14T13:00:02.499Z,3.14
2017-05-14T13:02:32.453Z,3.50
2017-05-14T13:05:02.479Z,4.08
2017-05-14T13:07:31.566Z,3.82
2017-05-14T13:10:00.620Z,3.54
2017-05-14T13:12:30.433Z,2.80
2017-05-14T13:15:00.489Z,2.78
2017-05-14T13:17:29.764Z,3.10
2017-05-14T13:19:59.569Z,3.08
2017-05-14T13:22:29.356Z,3.24
2017-05-14T13:24:58.433Z,2.72
2017-05-14T13:27:27.514Z,2.78
2017-05-14T13:29:56.580Z,3.34
2017-05-14T13:32:25.643Z,3.62
2017-05-14T13:34:54.732Z,3.26
2017-05-14T13:37:23.793Z,3.32
2017-05-14T13:39:52.879Z,2.72
2017-05-14T13:42:21.958Z,3.44
2017-05-14T13:44:51.032Z,2.52
2017-05-14T13:47:20.823Z,3.06
2017-05-14T13:49:49.895Z,2.72
2017-05-14T13:52:19.108Z,3.44
2017-05-14T13:54:48.174Z,3.36
2017-05-14T13:57:17.290Z,3.00
2017-05-14T13:59:46.344Z,3.10
2017-05-14T14:02:15.465Z,3.08
2017-05-14T14:04:44.549Z,2.98
2017-05-14T14:07:13.613Z,3.12
2017-05-14T14:09:43.430Z,3.28
2017-05-14T14:12:13.261Z,3.20
2017-05-14T14:14:42.339Z,2.82
2017-05-14T14:17:12.125Z,3.16
2017-05-14T14:19:41.222Z,2.68
2017-05-14T14:22:10.285Z,2.74
2017-05-14T14:24:39.650Z,2.68
2017-05-14T14:27:09.493Z,2.46
2017-05-14T14:29:38.541Z,2.42
2017-05-14T14:32:07.629Z,2.38
2017-05-14T14:34:36.685Z,2.40
2017-05-14T14:37:05.761Z,2.44
2017-05-14T14:39:34.839Z,2.04
2017-05-14T14:42:04.652Z,2.42
2017-05-14T14:44:34.483Z,2.10
2017-05-14T14:47:05.077Z,2.26
2017-05-14T14:49:34.476Z,1.94
2017-05-14T14:52:03.525Z,2.50
2017-05-14T14:54:32.617Z,2.32
2017-05-14T14:57:01.677Z,2.44
2017-05-14T14:59:31.456Z,2.86
2017-05-14T15:02:00.537Z,2.76
2017-05-14T15:04:29.605Z,2.84
2017-05-14T15:06:58.681Z,2.62
2017-05-14T15:09:28.473Z,2.78
2017-05-14T15:11:57.588Z,2.70
2017-05-14T15:14:28.737Z,3.08
2017-05-14T15:16:58.108Z,3.30
2017-05-14T15:19:27.193Z,3.50
2017-05-14T15:21:56.254Z,3.08
2017-05-14T15:24:25.304Z,3.12
2017-05-14T15:26:57.135Z,3.60
2017-05-14T15:29:26.336Z,3.20
2017-05-14T15:31:55.413Z,3.04
2017-05-14T15:34:24.556Z,2.80
2017-05-14T15:36:54.363Z,2.90
2017-05-14T15:39:24.180Z,3.16
2017-05-14T15:41:53.986Z,3.06
2017-05-14T15:44:23.184Z,2.80
2017-05-14T15:46:54.298Z,3.02
2017-05-14T15:49:24.244Z,3.22
2017-05-14T15:51:56.061Z,3.06
2017-05-14T15:54:26.752Z,3.18
2017-05-14T15:56:57.923Z,3.78
2017-05-14T15:59:27.041Z,2.94
2017-05-14T16:01:57.779Z,2.98
2017-05-14T16:04:26.926Z,2.80
2017-05-14T16:06:57.605Z,2.62
2017-05-14T16:09:26.689Z,3.00
2017-05-14T16:11:55.742Z,2.90
2017-05-14T16:14:29.518Z,2.92
2017-05-14T16:16:58.773Z,2.92
2017-05-14T16:19:29.993Z,2.38
2017-05-14T16:22:02.537Z,1.94
2017-05-14T16:24:32.383Z,1.94
2017-05-14T16:27:03.520Z,1.60
2017-05-14T16:29:34.280Z,1.72
2017-05-14T16:32:03.545Z,1.90
2017-05-14T16:34:32.633Z,1.92
2017-05-14T16:37:02.079Z,2.04
2017-05-14T16:39:31.145Z,1.90
2017-05-14T16:42:02.384Z,2.26
2017-05-14T16:44:34.237Z,1.82
2017-05-14T16:47:07.665Z,1.50
2017-05-14T16:49:38.347Z,1.86
2017-05-14T16:52:10.732Z,2.36
2017-05-14T16:54:40.718Z,2.24
2017-05-14T16:57:09.856Z,1.90
2017-05-14T16:59:41.179Z,2.70
2017-05-14T17:02:10.328Z,2.24
2017-05-14T17:04:40.140Z,2.28
2017-05-14T17:07:10.585Z,2.22
2017-05-14T17:09:45.934Z,2.26
2017-05-14T17:12:16.334Z,2.08
2017-05-14T17:14:48.062Z,1.86
2017-05-14T17:17:21.594Z,1.90
2017-05-14T17:19:57.061Z,2.48
2017-05-14T17:22:29.577Z,2.04
2017-05-14T17:25:00.536Z,1.90
2017-05-14T17:27:31.365Z,1.62
2017-05-14T17:30:04.785Z,1.76
2017-05-14T17:32:35.683Z,1.90
2017-05-14T17:35:12.109Z,1.60
2017-05-14T17:37:42.353Z,1.92
2017-05-14T17:40:16.237Z,2.00
2017-05-14T17:42:52.724Z,2.18
2017-05-14T17:45:26.263Z,2.30
2017-05-14T17:47:59.723Z,2.58
2017-05-14T17:50:30.726Z,2.42
2017-05-14T17:53:05.074Z,2.46
2017-05-14T17:55:39.725Z,2.50
2017-05-14T17:58:09.803Z,2.30
2017-05-14T18:00:38.910Z,2.66
2017-05-14T18:03:08.001Z,2.60
2017-05-14T18:05:37.816Z,2.80
2017-05-14T18:08:07.818Z,2.98
2017-05-14T18:10:37.630Z,2.50
2017-05-14T18:13:10.257Z,3.04
2017-05-14T18:15:41.544Z,3.06
2017-05-14T18:18:13.076Z,1.82
2017-05-14T18:20:42.150Z,1.80
2017-05-14T18:23:11.243Z,1.94
2017-05-14T18:25:40.617Z,1.74
2017-05-14T18:28:11.026Z,2.10
2017-05-14T18:30:43.860Z,2.10
2017-05-14T18:33:14.254Z,2.14
2017-05-14T18:35:43.994Z,2.20
2017-05-14T18:38:13.942Z,1.52
2017-05-14T18:40:43.002Z,2.00
2017-05-14T18:43:12.078Z,2.60
2017-05-14T18:45:41.191Z,1.82
2017-05-14T18:48:10.299Z,1.86
2017-05-14T18:50:40.086Z,1.78
2017-05-14T18:53:09.243Z,1.94
2017-05-14T18:55:39.051Z,2.48
2017-05-14T18:58:08.873Z,1.52
2017-05-14T19:00:38.737Z,2.06
2017-05-14T19:03:11.060Z,2.00
2017-05-14T19:05:42.165Z,1.86
2017-05-14T19:08:11.236Z,2.16
2017-05-14T19:10:40.360Z,1.98
2017-05-14T19:13:09.433Z,2.48
2017-05-14T19:15:39.490Z,2.60
2017-05-14T19:18:09.113Z,2.30
2017-05-14T19:20:38.952Z,2.80
2017-05-14T19:23:08.044Z,3.32
2017-05-14T19:25:37.171Z,3.42
2017-05-14T19:28:06.216Z,3.16
2017-05-14T19:30:36.735Z,2.10
2017-05-14T19:33:07.110Z,2.48
2017-05-14T19:35:36.212Z,2.90
2017-05-14T19:38:05.252Z,2.82
2017-05-14T19:40:35.157Z,3.14
2017-05-14T19:43:04.306Z,2.38
2017-05-14T19:45:33.355Z,2.32
2017-05-14T19:48:02.428Z,1.68
2017-05-14T19:50:31.484Z,1.82
2017-05-14T19:53:00.543Z,1.70
2017-05-14T19:55:30.384Z,2.26
2017-05-14T19:57:59.481Z,2.60
2017-05-14T20:00:28.542Z,3.06
2017-05-14T20:02:59.513Z,2.96
2017-05-14T20:05:28.601Z,2.72
2017-05-14T20:08:02.218Z,2.30
2017-05-14T20:10:37.689Z,2.64
2017-05-14T20:13:08.850Z,2.82
2017-05-14T20:15:46.142Z,3.22
2017-05-14T20:18:22.694Z,3.26
2017-05-14T20:20:58.109Z,3.92
2017-05-14T20:23:28.872Z,4.80
2017-05-14T20:26:02.684Z,3.56
2017-05-14T20:28:32.709Z,3.68
2017-05-14T20:31:07.117Z,4.48
2017-05-14T20:33:38.422Z,5.04
2017-05-14T20:36:12.577Z,5.10
2017-05-14T20:38:49.226Z,4.62
2017-05-14T20:41:22.485Z,5.08
2017-05-14T20:43:58.415Z,5.10
2017-05-14T20:46:31.831Z,5.00
2017-05-14T20:49:05.077Z,4.90
2017-05-14T20:51:36.886Z,5.12
2017-05-14T20:54:07.701Z,4.70
2017-05-14T20:56:36.777Z,5.26
2017-05-14T20:59:05.841Z,5.32
2017-05-14T21:01:34.877Z,5.94
2017-05-14T21:04:03.957Z,5.50
2017-05-14T21:06:33.018Z,5.88
2017-05-14T21:09:02.080Z,6.48
2017-05-14T21:11:31.157Z,6.14
2017-05-14T21:14:00.243Z,7.04
2017-05-14T21:16:29.538Z,7.26
2017-05-14T21:18:58.581Z,7.04
2017-05-14T21:21:28.379Z,8.04
2017-05-14T21:23:57.675Z,7.68
2017-05-14T21:26:26.728Z,7.20
2017-05-14T21:28:55.842Z,8.54
2017-05-14T21:31:24.913Z,7.70
2017-05-14T21:33:53.993Z,6.72
2017-05-14T21:36:23.203Z,9.18
2017-05-14T21:38:52.286Z,8.04
2017-05-14T21:41:21.822Z,8.86
2017-05-14T21:43:51.601Z,9.38
2017-05-14T21:46:20.695Z,9.46
2017-05-14T21:48:50.988Z,8.80
2017-05-14T21:51:20.053Z,9.86
2017-05-14T21:53:49.112Z,9.60
2017-05-14T21:56:18.193Z,8.86
2017-05-14T21:58:48.281Z,9.24
2017-05-14T22:01:17.346Z,9.06
2017-05-14T22:03:46.432Z,11.36
2017-05-14T22:06:15.501Z,10.48
2017-05-14T22:08:45.314Z,11.24
2017-05-14T22:11:15.117Z,11.58
2017-05-14T22:13:45.872Z,11.30
2017-05-14T22:16:14.918Z,10.98
2017-05-14T22:18:43.980Z,11.72
2017-05-14T22:21:14.391Z,11.88
2017-05-14T22:23:43.589Z,11.92
2017-05-14T22:26:12.649Z,12.20
2017-05-14T22:28:41.736Z,12.18
2017-05-14T22:31:11.097Z,11.66
2017-05-14T22:33:40.154Z,15.24
2017-05-14T22:36:09.973Z,13.98
2017-05-14T22:38:40.685Z,15.28
2017-05-14T22:41:13.157Z,13.90
2017-05-14T22:43:46.436Z,14.18
2017-05-14T22:46:23.258Z,14.66
2017-05-14T22:48:56.193Z,13.20
2017-05-14T22:51:35.635Z,14.08
2017-05-14T22:54:11.344Z,13.34
2017-05-14T22:56:44.730Z,12.56
2017-05-14T22:59:18.624Z,13.04
2017-05-14T23:01:52.042Z,11.02
2017-05-14T23:04:23.421Z,11.92
2017-05-14T23:06:59.456Z,12.92
2017-05-14T23:09:33.144Z,10.80
2017-05-14T23:12:08.327Z,11.08
2017-05-14T23:14:42.685Z,11.40
2017-05-14T23:17:17.623Z,11.10
2017-05-14T23:19:50.045Z,11.58
2017-05-14T23:22:23.587Z,11.20
2017-05-14T23:24:55.480Z,11.70
2017-05-14T23:27:26.372Z,12.26
2017-05-14T23:30:01.418Z,11.74
2017-05-14T23:32:33.624Z,11.42
2017-05-14T23:35:07.931Z,12.16
2017-05-14T23:37:40.772Z,12.54
2017-05-14T23:40:16.716Z,11.70
2017-05-14T23:42:50.682Z,11.96
2017-05-14T23:45:27.009Z,12.76
2017-05-14T23:48:02.085Z,11.64
2017-05-14T23:50:37.227Z,13.72
2017-05-14T23:53:13.457Z,12.70
2017-05-14T23:55:48.272Z,12.78
2017-05-14T23:58:23.734Z,13.78
